createdAt,value
2023-03-22T00:00:29.117Z,10.30
2023-03-22T00:02:57.809Z,10.30
2023-03-22T00:05:26.379Z,10.30
2023-03-22T00:07:58.097Z,10.40
2023-03-22T00:10:27.601Z,10.40
2023-03-22T00:12:57.150Z,10.40
2023-03-22T00:15:25.375Z,10.30
2023-03-22T00:17:53.454Z,10.40
2023-03-22T00:20:23.647Z,10.40
2023-03-22T00:22:51.840Z,10.50
2023-03-22T00:25:20.375Z,10.50
2023-03-22T00:27:48.443Z,10.50
2023-03-22T00:30:18.329Z,10.40
2023-03-22T00:32:46.399Z,10.40
2023-03-22T00:35:14.442Z,10.40
2023-03-22T00:37:42.402Z,10.50
2023-03-22T00:40:12.826Z,10.40
2023-03-22T00:42:42.448Z,10.40
2023-03-22T00:45:13.179Z,10.40
2023-03-22T00:47:42.653Z,10.30
2023-03-22T00:50:11.657Z,10.40
2023-03-22T00:52:39.595Z,10.30
2023-03-22T00:55:08.163Z,10.40
2023-03-22T00:57:36.292Z,10.30
2023-03-22T01:00:16.046Z,10.40
2023-03-22T01:02:45.448Z,10.50
2023-03-22T01:05:16.090Z,10.50
2023-03-22T01:07:44.779Z,10.70
2023-03-22T01:10:13.539Z,10.50
2023-03-22T01:12:41.503Z,10.50
2023-03-22T01:15:10.750Z,10.50
2023-03-22T01:17:38.822Z,10.60
2023-03-22T01:20:09.764Z,10.60
2023-03-22T01:22:38.035Z,10.60
2023-03-22T01:25:06.724Z,10.50
2023-03-22T01:27:34.793Z,10.60
2023-03-22T01:30:02.993Z,10.60
2023-03-22T01:32:31.045Z,10.70
2023-03-22T01:34:59.059Z,10.60
2023-03-22T01:37:28.473Z,10.70
2023-03-22T01:39:56.574Z,10.70
2023-03-22T01:42:25.761Z,10.60
2023-03-22T01:45:34.018Z,10.60
2023-03-22T01:48:05.803Z,10.60
2023-03-22T01:50:34.115Z,10.50
2023-03-22T01:53:05.137Z,10.50
2023-03-22T01:55:36.253Z,10.50
2023-03-22T01:58:05.518Z,10.40
2023-03-22T02:00:34.632Z,10.50
2023-03-22T02:03:02.906Z,10.40
2023-03-22T02:05:32.385Z,10.40
2023-03-22T02:08:01.088Z,10.50
2023-03-22T02:10:30.714Z,10.50
2023-03-22T02:13:26.693Z,10.40
2023-03-22T02:16:03.419Z,10.60
2023-03-22T02:18:56.917Z,10.60
2023-03-22T02:21:44.414Z,10.60
2023-03-22T02:24:35.955Z,10.50
2023-03-22T02:27:30.957Z,10.70
2023-03-22T02:30:18.631Z,10.70
2023-03-22T02:33:05.136Z,10.70
2023-03-22T02:35:47.252Z,10.70
2023-03-22T02:38:59.512Z,10.60
2023-03-22T02:41:39.132Z,10.60
2023-03-22T02:44:17.325Z,10.60
2023-03-22T02:46:49.279Z,10.70
2023-03-22T02:49:22.778Z,10.70
2023-03-22T02:51:58.622Z,10.80
2023-03-22T02:54:34.460Z,10.80
2023-03-22T02:57:07.169Z,10.80
2023-03-22T02:59:39.318Z,10.80
2023-03-22T03:02:11.845Z,10.80
2023-03-22T03:04:46.123Z,10.80
2023-03-22T03:07:17.789Z,10.80
2023-03-22T03:09:47.595Z,10.80
2023-03-22T03:12:19.292Z,10.80
2023-03-22T03:14:47.261Z,10.90
2023-03-22T03:17:26.645Z,10.90
2023-03-22T03:20:08.004Z,10.90
2023-03-22T03:22:47.992Z,10.90
2023-03-22T03:25:25.239Z,10.80
2023-03-22T03:28:01.789Z,10.90
2023-03-22T03:30:35.905Z,10.80
2023-03-22T03:33:10.611Z,10.90
2023-03-22T03:35:42.225Z,10.80
2023-03-22T03:38:14.761Z,11.00
2023-03-22T03:40:49.384Z,10.70
2023-03-22T03:43:18.628Z,10.70
2023-03-22T03:45:47.296Z,10.80
2023-03-22T03:48:19.878Z,10.80
2023-03-22T03:50:50.360Z,10.80
2023-03-22T03:53:18.414Z,10.70
2023-03-22T03:55:47.844Z,10.70
2023-03-22T03:58:16.763Z,10.70
2023-03-22T04:00:46.067Z,10.60
2023-03-22T04:03:14.369Z,10.60
2023-03-22T04:05:42.474Z,10.50
2023-03-22T04:08:10.657Z,10.40
2023-03-22T04:10:38.916Z,10.40
2023-03-22T04:13:08.638Z,10.40
2023-03-22T04:15:36.668Z,10.40
2023-03-22T04:18:04.860Z,10.50
2023-03-22T04:20:32.828Z,10.50
2023-03-22T04:23:01.020Z,10.50
2023-03-22T04:25:30.205Z,10.60
2023-03-22T04:28:00.558Z,10.40
2023-03-22T04:30:30.839Z,10.50
2023-03-22T04:32:58.864Z,10.50
2023-03-22T04:35:26.909Z,10.60
2023-03-22T04:37:54.947Z,10.60
2023-03-22T04:40:23.035Z,10.60
2023-03-22T04:42:51.431Z,10.60
2023-03-22T04:45:19.549Z,10.60
2023-03-22T04:47:48.930Z,10.50
2023-03-22T04:50:17.099Z,10.80
2023-03-22T04:52:45.440Z,10.60
2023-03-22T04:55:13.407Z,10.60
2023-03-22T04:57:41.394Z,10.60
2023-03-22T05:00:10.381Z,10.60
2023-03-22T05:02:41.472Z,10.50
2023-03-22T05:05:11.178Z,10.50
2023-03-22T05:07:39.782Z,10.50
2023-03-22T05:10:09.115Z,10.70
2023-03-22T05:12:37.161Z,10.50
2023-03-22T05:15:06.625Z,10.50
2023-03-22T05:17:35.619Z,10.50
2023-03-22T05:20:09.447Z,10.70
2023-03-22T05:22:41.073Z,10.50
2023-03-22T05:25:11.404Z,10.60
2023-03-22T05:27:39.380Z,10.50
2023-03-22T05:30:09.875Z,10.50
2023-03-22T05:32:42.963Z,10.50
2023-03-22T05:35:11.386Z,10.50
2023-03-22T05:37:40.768Z,10.40
2023-03-22T05:40:10.379Z,10.50
2023-03-22T05:42:38.450Z,10.50
2023-03-22T05:45:07.268Z,10.50
2023-03-22T05:47:36.136Z,10.50
2023-03-22T05:50:04.338Z,10.30
2023-03-22T05:52:32.359Z,10.30
2023-03-22T05:55:01.688Z,10.50
2023-03-22T05:57:30.227Z,10.40
2023-03-22T05:59:58.332Z,10.30
2023-03-22T06:02:27.123Z,10.30
2023-03-22T06:04:55.419Z,10.30
2023-03-22T06:07:23.766Z,10.30
2023-03-22T06:09:51.751Z,10.30
2023-03-22T06:12:24.616Z,10.40
2023-03-22T06:14:52.715Z,10.40
2023-03-22T06:17:20.862Z,10.30
2023-03-22T06:19:49.306Z,10.30
2023-03-22T06:22:18.054Z,10.40
2023-03-22T06:24:46.045Z,10.40
2023-03-22T06:27:14.123Z,10.50
2023-03-22T06:29:43.466Z,10.50
2023-03-22T06:32:11.789Z,10.60
2023-03-22T06:34:39.842Z,10.70
2023-03-22T06:37:07.922Z,10.70
2023-03-22T06:39:36.021Z,10.80
2023-03-22T06:42:04.016Z,11.00
2023-03-22T06:44:32.072Z,11.10
2023-03-22T06:47:01.672Z,11.20
2023-03-22T06:49:29.881Z,11.30
2023-03-22T06:51:57.994Z,11.50
2023-03-22T06:54:26.072Z,11.70
2023-03-22T06:56:54.058Z,11.80
2023-03-22T06:59:22.081Z,11.90
2023-03-22T07:01:50.084Z,12.00
2023-03-22T07:04:20.097Z,11.90
2023-03-22T07:06:48.334Z,12.00
2023-03-22T07:09:16.495Z,12.00
2023-03-22T07:11:44.589Z,12.10
2023-03-22T07:14:12.631Z,12.10
2023-03-22T07:16:40.764Z,12.40
2023-03-22T07:19:08.854Z,12.20
2023-03-22T07:21:40.220Z,12.20
2023-03-22T07:24:09.307Z,12.20
2023-03-22T07:26:39.353Z,12.30
2023-03-22T07:29:07.927Z,12.30
2023-03-22T07:31:36.749Z,12.40
2023-03-22T07:34:05.159Z,12.50
2023-03-22T07:36:33.244Z,12.50
2023-03-22T07:39:03.135Z,12.60
2023-03-22T07:41:31.333Z,12.70
2023-03-22T07:44:14.786Z,12.70
2023-03-22T07:46:44.869Z,12.70
2023-03-22T07:49:12.877Z,12.90
2023-03-22T07:51:40.968Z,13.10
2023-03-22T07:54:11.509Z,13.20
2023-03-22T07:56:42.602Z,13.10
2023-03-22T07:59:10.908Z,13.10
2023-03-22T08:01:39.063Z,13.10
2023-03-22T08:04:08.379Z,13.10
2023-03-22T08:06:36.972Z,13.10
2023-03-22T08:09:05.787Z,13.00
2023-03-22T08:11:35.170Z,13.10
2023-03-22T08:14:04.499Z,13.20
2023-03-22T08:16:33.105Z,13.30
2023-03-22T08:19:01.456Z,13.30
2023-03-22T08:21:29.571Z,13.30
2023-03-22T08:23:57.705Z,13.40
2023-03-22T08:26:26.178Z,13.50
2023-03-22T08:28:56.431Z,13.30
2023-03-22T08:31:24.625Z,13.20
2023-03-22T08:33:54.466Z,13.30
2023-03-22T08:36:25.970Z,13.20
2023-03-22T08:38:54.255Z,13.50
2023-03-22T08:41:23.610Z,13.30
2023-03-22T08:43:51.935Z,13.40
2023-03-22T08:46:21.373Z,13.90
2023-03-22T08:48:50.807Z,14.40
2023-03-22T08:51:19.421Z,14.60
2023-03-22T08:53:47.652Z,14.50
2023-03-22T08:56:17.967Z,14.50
2023-03-22T08:58:46.803Z,14.90
2023-03-22T09:01:15.623Z,15.40
2023-03-22T09:03:45.103Z,16.00
2023-03-22T09:06:13.567Z,16.40
2023-03-22T09:08:42.398Z,16.80
2023-03-22T09:11:11.439Z,17.80
2023-03-22T09:13:40.079Z,18.60
2023-03-22T09:16:10.178Z,18.30
2023-03-22T09:18:39.320Z,18.00
2023-03-22T09:21:11.560Z,18.10
2023-03-22T09:23:40.192Z,17.50
2023-03-22T09:26:10.215Z,17.80
2023-03-22T09:28:38.744Z,17.50
2023-03-22T09:31:09.818Z,18.10
2023-03-22T09:33:39.132Z,18.80
2023-03-22T09:36:09.258Z,20.20
2023-03-22T09:38:38.766Z,20.70
2023-03-22T09:41:15.489Z,20.70
2023-03-22T09:43:46.928Z,20.40
2023-03-22T09:46:18.078Z,20.60
2023-03-22T09:48:49.411Z,20.40
2023-03-22T09:51:32.137Z,19.40
2023-03-22T09:54:00.408Z,18.80
2023-03-22T09:56:31.745Z,19.00
2023-03-22T09:59:09.709Z,19.00
2023-03-22T10:01:47.176Z,18.00
2023-03-22T10:04:46.872Z,18.10
2023-03-22T10:07:27.174Z,18.50
2023-03-22T10:10:06.789Z,18.50
2023-03-22T10:12:44.035Z,18.50
2023-03-22T10:15:15.961Z,19.40
2023-03-22T10:17:47.464Z,20.50
2023-03-22T10:20:29.674Z,21.00
2023-03-22T10:23:01.209Z,20.80
2023-03-22T10:25:36.524Z,20.50
2023-03-22T10:28:16.172Z,20.00
2023-03-22T10:30:50.928Z,19.10
2023-03-22T10:33:27.628Z,19.10
2023-03-22T10:35:56.683Z,19.40
2023-03-22T10:38:28.545Z,19.90
2023-03-22T10:41:00.928Z,19.80
2023-03-22T10:43:33.768Z,20.50
2023-03-22T10:46:07.061Z,21.30
2023-03-22T10:48:37.277Z,22.00
2023-03-22T10:51:06.472Z,21.70
2023-03-22T10:53:40.235Z,21.30
2023-03-22T10:56:15.514Z,21.50
2023-03-22T10:58:43.700Z,21.50
2023-03-22T11:01:13.502Z,22.10
2023-03-22T11:03:43.560Z,22.90
2023-03-22T11:06:14.618Z,23.10
2023-03-22T11:08:47.287Z,22.40
2023-03-22T11:11:20.410Z,22.00
2023-03-22T11:13:55.393Z,21.60
2023-03-22T11:16:24.558Z,20.30
2023-03-22T11:18:52.874Z,19.90
2023-03-22T11:21:25.478Z,19.70
2023-03-22T11:23:59.840Z,19.30
2023-03-22T11:26:31.776Z,18.80
2023-03-22T11:29:08.202Z,19.00
2023-03-22T11:31:58.470Z,19.40
2023-03-22T11:34:28.974Z,19.10
2023-03-22T11:37:00.847Z,19.20
2023-03-22T11:39:30.849Z,18.90
2023-03-22T11:42:01.518Z,18.90
2023-03-22T11:44:33.237Z,19.00
2023-03-22T11:47:03.284Z,18.90
2023-03-22T11:49:39.589Z,18.30
2023-03-22T11:52:16.416Z,18.20
2023-03-22T11:54:47.260Z,17.90
2023-03-22T11:57:18.576Z,17.80
2023-03-22T11:59:50.489Z,18.00
2023-03-22T12:02:24.503Z,17.90
2023-03-22T12:05:00.683Z,17.70
2023-03-22T12:07:31.883Z,17.50
2023-03-22T12:10:06.473Z,17.30
2023-03-22T12:12:39.114Z,17.10
2023-03-22T12:15:13.716Z,17.20
2023-03-22T12:17:48.996Z,17.10
2023-03-22T12:20:26.222Z,17.20
2023-03-22T12:22:56.169Z,17.10
2023-03-22T12:25:30.478Z,17.20
2023-03-22T12:28:00.412Z,17.10
2023-03-22T12:30:31.960Z,17.10
2023-03-22T12:33:04.810Z,17.30
2023-03-22T12:35:36.499Z,17.60
2023-03-22T12:38:16.888Z,17.60
2023-03-22T12:40:46.818Z,17.90
2023-03-22T12:43:18.963Z,17.90
2023-03-22T12:45:53.251Z,18.10
2023-03-22T12:48:25.631Z,17.80
2023-03-22T12:50:59.203Z,18.10
2023-03-22T12:53:31.998Z,18.10
2023-03-22T12:56:02.002Z,18.10
2023-03-22T12:58:30.041Z,18.00
2023-03-22T13:01:01.360Z,17.90
2023-03-22T13:03:37.779Z,17.90
2023-03-22T13:06:08.829Z,17.70
2023-03-22T13:09:16.982Z,17.70
2023-03-22T13:11:49.014Z,17.80
2023-03-22T13:14:51.255Z,17.60
2023-03-22T13:17:40.862Z,16.90
2023-03-22T13:20:31.529Z,16.90
2023-03-22T13:23:12.609Z,16.80
2023-03-22T13:25:59.098Z,16.70
2023-03-22T13:28:31.532Z,16.50
2023-03-22T13:31:00.500Z,16.50
2023-03-22T13:33:33.394Z,16.50
2023-03-22T13:36:09.528Z,16.50
2023-03-22T13:38:42.849Z,16.60
2023-03-22T13:41:22.709Z,16.60
2023-03-22T13:43:55.405Z,16.60
2023-03-22T13:46:46.829Z,16.50
2023-03-22T13:49:49.194Z,16.30
2023-03-22T13:52:27.718Z,15.70
2023-03-22T13:54:59.140Z,15.60
2023-03-22T13:57:56.999Z,15.40
2023-03-22T14:00:41.349Z,15.40
2023-03-22T14:03:17.569Z,15.40
2023-03-22T14:05:48.766Z,15.50
2023-03-22T14:08:26.116Z,15.60
2023-03-22T14:10:59.218Z,15.70
2023-03-22T14:13:32.867Z,15.90
2023-03-22T14:16:09.592Z,16.00
2023-03-22T14:18:43.496Z,16.20
2023-03-22T14:21:17.888Z,16.40
